Time;durP1;ratioP1;P1;durP2;ratioP2;P2;SDS_P1;SDS_P2;PMS_P1;PMS_P2;Temp;Humidity;BMP_temperature;BMP_pressure;BME280_temperature;BME280_humidity;BME280_pressure;Samples;Min_cycle;Max_cycle;Signal;HPM_P1;HPM_P2
2021/03/31 00:00:22;;;;;;;3.55;1.50;;;23.10;46.70;;;;;;5006655;28;20097;-79
2021/03/31 00:02:57;;;;;;;1.40;1.02;;;23.10;46.70;;;;;;5030251;28;20025;-80
2021/03/31 00:05:42;;;;;;;2.17;1.40;;;23.10;46.60;;;;;;5028138;28;20136;-79
2021/03/31 00:08:08;;;;;;;2.70;1.30;;;23.10;46.60;;;;;;5035163;28;20036;-80
2021/03/31 00:10:38;;;;;;;1.33;1.08;;;23.10;46.50;;;;;;5028326;28;20511;-79
2021/03/31 00:13:04;;;;;;;3.20;1.90;;;23.10;46.50;;;;;;5029825;28;20476;-80
2021/03/31 00:15:31;;;;;;;1.90;1.35;;;23.00;46.50;;;;;;5025786;28;20041;-80
2021/03/31 00:17:58;;;;;;;1.98;1.00;;;23.10;46.60;;;;;;5010999;28;20041;-80
2021/03/31 00:20:24;;;;;;;1.40;0.98;;;23.10;46.60;;;;;;5025197;28;20025;-80
2021/03/31 00:22:51;;;;;;;2.20;1.25;;;23.10;46.50;;;;;;5010894;28;20064;-80
2021/03/31 00:25:18;;;;;;;2.60;1.30;;;23.00;46.50;;;;;;5026156;28;20022;-79
2021/03/31 00:27:44;;;;;;;1.30;0.75;;;23.10;46.50;;;;;;5025383;28;20052;-78
2021/03/31 00:30:15;;;;;;;1.75;1.05;;;23.00;46.40;;;;;;5024713;28;20536;-79
2021/03/31 00:32:42;;;;;;;1.33;0.90;;;23.00;46.40;;;;;;5027636;28;20405;-79
2021/03/31 00:35:09;;;;;;;1.52;0.90;;;23.00;46.70;;;;;;5026427;28;20060;-80
2021/03/31 00:37:36;;;;;;;1.60;0.98;;;23.00;46.60;;;;;;5008542;28;20025;-78
2021/03/31 00:40:09;;;;;;;1.27;1.02;;;23.00;46.40;;;;;;5024306;28;20026;-79
2021/03/31 00:42:35;;;;;;;1.75;1.08;;;23.00;46.50;;;;;;5024858;28;20029;-79
2021/03/31 00:45:05;;;;;;;2.05;1.40;;;23.00;46.40;;;;;;5026669;28;20117;-78
2021/03/31 00:47:31;;;;;;;1.60;0.85;;;23.00;46.50;;;;;;5005833;28;20119;-79
2021/03/31 00:49:57;;;;;;;1.40;1.05;;;23.00;46.40;;;;;;5028733;28;20017;-79
2021/03/31 00:52:24;;;;;;;2.13;1.10;;;23.00;46.50;;;;;;5028233;28;20043;-80
2021/03/31 00:54:50;;;;;;;1.50;1.00;;;23.00;46.50;;;;;;5023682;28;20474;-80
2021/03/31 00:57:16;;;;;;;1.58;0.80;;;23.00;46.50;;;;;;5007304;28;20021;-79
2021/03/31 00:59:42;;;;;;;3.40;0.70;;;23.00;46.40;;;;;;5008784;28;20466;-79
2021/03/31 01:02:08;;;;;;;2.45;1.02;;;22.90;46.30;;;;;;5032752;28;20033;-80
2021/03/31 01:04:34;;;;;;;1.92;1.00;;;23.00;46.40;;;;;;5016063;28;20024;-80
2021/03/31 01:07:00;;;;;;;1.50;0.98;;;22.90;46.30;;;;;;5007962;28;20024;-80
2021/03/31 01:09:27;;;;;;;1.70;0.98;;;22.90;46.30;;;;;;5007219;28;20078;-80
2021/03/31 01:12:38;;;;;;;1.83;1.02;;;23.00;46.40;;;;;;5024956;28;20040;-80
2021/03/31 01:15:12;;;;;;;1.70;0.80;;;23.00;46.40;;;;;;5010172;28;20037;-81
2021/03/31 01:17:38;;;;;;;1.60;0.98;;;23.00;46.30;;;;;;5026116;28;20279;-80
2021/03/31 01:20:30;;;;;;;1.48;0.60;;;23.00;46.30;;;;;;5026500;28;20021;-80
2021/03/31 01:23:24;;;;;;;1.45;0.90;;;22.90;46.30;;;;;;5011616;28;20037;-80
2021/03/31 01:26:03;;;;;;;1.52;0.82;;;22.90;46.40;;;;;;5009411;28;20025;-80
2021/03/31 01:28:55;;;;;;;2.75;0.57;;;22.90;46.20;;;;;;5026937;28;20020;-80
2021/03/31 01:31:40;;;;;;;1.08;0.77;;;22.90;46.30;;;;;;5028763;28;20101;-79
2021/03/31 01:34:23;;;;;;;1.92;0.95;;;22.90;46.30;;;;;;5027595;28;20108;-80
2021/03/31 01:36:53;;;;;;;3.13;1.05;;;22.90;46.30;;;;;;5052142;28;20021;-80
2021/03/31 01:39:22;;;;;;;1.02;0.60;;;22.90;46.30;;;;;;5030718;28;20025;-80
2021/03/31 01:41:50;;;;;;;1.38;0.90;;;22.90;46.30;;;;;;5016637;28;20093;-80
2021/03/31 01:44:19;;;;;;;1.35;0.70;;;22.90;46.20;;;;;;5031929;28;20459;-80
2021/03/31 01:46:54;;;;;;;0.68;0.30;;;22.90;46.30;;;;;;5034158;28;20016;-80
2021/03/31 01:49:23;;;;;;;1.98;0.80;;;22.90;46.30;;;;;;5029304;28;20481;-79
2021/03/31 01:51:54;;;;;;;1.38;0.88;;;22.80;46.20;;;;;;5012864;28;20030;-79
2021/03/31 01:54:20;;;;;;;1.10;0.80;;;22.90;46.30;;;;;;5031238;28;20017;-79
2021/03/31 01:56:47;;;;;;;1.35;0.60;;;22.90;46.20;;;;;;5012091;28;20700;-79
2021/03/31 01:59:17;;;;;;;1.50;0.70;;;22.90;46.20;;;;;;5012890;28;20017;-79
2021/03/31 02:01:46;;;;;;;0.88;0.40;;;22.80;46.30;;;;;;5046415;28;20030;-79
2021/03/31 02:04:15;;;;;;;2.47;0.80;;;22.90;46.30;;;;;;5029030;28;20429;-79
2021/03/31 02:06:42;;;;;;;1.88;0.68;;;22.90;46.20;;;;;;5015254;28;20047;-80
2021/03/31 02:09:09;;;;;;;2.60;0.90;;;22.90;46.20;;;;;;5049514;28;20017;-80
2021/03/31 02:11:35;;;;;;;1.70;0.63;;;22.90;46.20;;;;;;5015228;28;20559;-80
2021/03/31 02:14:03;;;;;;;1.70;0.70;;;22.80;46.20;;;;;;5033216;28;20270;-80
2021/03/31 02:16:32;;;;;;;0.68;0.38;;;22.90;46.10;;;;;;5048556;28;20116;-79
2021/03/31 02:18:59;;;;;;;1.10;0.68;;;22.90;46.20;;;;;;5031749;28;20044;-79
2021/03/31 02:21:25;;;;;;;1.58;0.57;;;22.80;46.20;;;;;;5029332;28;20048;-80
2021/03/31 02:23:53;;;;;;;1.67;0.55;;;22.80;46.10;;;;;;5010711;28;20032;-80
2021/03/31 02:26:19;;;;;;;0.80;0.50;;;22.80;46.20;;;;;;5044432;28;20024;-79
2021/03/31 02:28:45;;;;;;;1.02;0.55;;;22.80;46.20;;;;;;5023280;28;20049;-79
2021/03/31 02:31:15;;;;;;;0.90;0.30;;;22.80;46.20;;;;;;5031038;28;20032;-79
2021/03/31 02:33:44;;;;;;;1.50;0.50;;;22.80;46.20;;;;;;5029694;28;20086;-80
2021/03/31 02:36:13;;;;;;;1.30;0.70;;;22.80;46.20;;;;;;5015571;28;20025;-79
2021/03/31 02:38:40;;;;;;;1.58;0.43;;;22.70;46.20;;;;;;5015839;28;20036;-79
2021/03/31 02:41:07;;;;;;;0.68;0.40;;;22.80;46.20;;;;;;5034250;28;20029;-79
2021/03/31 02:43:34;;;;;;;2.08;0.57;;;22.80;46.10;;;;;;5016019;28;20030;-79
2021/03/31 02:46:01;;;;;;;1.10;0.47;;;22.80;46.20;;;;;;5014674;28;20028;-80
2021/03/31 02:48:28;;;;;;;0.60;0.20;;;22.80;46.70;;;;;;5052404;28;20017;-79
2021/03/31 02:50:57;;;;;;;1.00;0.47;;;22.80;46.20;;;;;;5013864;28;20021;-79
2021/03/31 02:53:24;;;;;;;1.33;0.60;;;22.80;46.20;;;;;;5016953;28;20029;-80
2021/03/31 02:55:51;;;;;;;0.77;0.40;;;22.70;46.20;;;;;;5015507;28;20087;-80
2021/03/31 02:58:17;;;;;;;0.50;0.30;;;22.80;46.20;;;;;;5049942;28;20030;-80
2021/03/31 03:00:43;;;;;;;0.73;0.30;;;22.80;46.20;;;;;;5049328;28;20104;-80
2021/03/31 03:03:11;;;;;;;0.70;0.30;;;22.80;46.20;;;;;;5024457;28;20688;-80
2021/03/31 03:05:38;;;;;;;0.93;0.40;;;22.70;46.60;;;;;;5031149;28;20059;-80
2021/03/31 03:08:05;;;;;;;1.02;0.40;;;22.70;46.10;;;;;;5032192;28;20021;-80
2021/03/31 03:10:31;;;;;;;0.75;0.30;;;22.70;46.10;;;;;;5028243;28;20026;-80
2021/03/31 03:12:59;;;;;;;0.68;0.30;;;22.70;46.20;;;;;;5027326;28;20021;-80
2021/03/31 03:15:28;;;;;;;1.98;0.40;;;22.70;46.10;;;;;;5045790;28;20021;-80
2021/03/31 03:17:54;;;;;;;0.88;0.25;;;22.70;46.10;;;;;;5017342;28;20045;-80
2021/03/31 03:20:21;;;;;;;0.90;0.40;;;22.70;46.10;;;;;;5048654;28;20021;-79
2021/03/31 03:22:51;;;;;;;0.90;0.30;;;22.70;46.00;;;;;;5014007;28;20504;-79
2021/03/31 03:25:21;;;;;;;0.60;0.40;;;22.70;46.00;;;;;;5031380;28;20158;-79
2021/03/31 03:27:48;;;;;;;1.20;0.30;;;22.70;46.10;;;;;;5025799;28;20028;-79
2021/03/31 03:30:16;;;;;;;0.93;0.47;;;22.70;46.00;;;;;;5010666;28;20017;-79
2021/03/31 03:32:47;;;;;;;0.60;0.22;;;22.70;46.00;;;;;;5032541;28;20028;-79
2021/03/31 03:35:20;;;;;;;0.70;0.40;;;22.70;46.00;;;;;;5033939;28;20104;-79
2021/03/31 03:37:48;;;;;;;0.75;0.30;;;22.70;46.00;;;;;;5029272;28;20035;-79
2021/03/31 03:40:15;;;;;;;0.90;0.40;;;22.70;46.10;;;;;;5012886;28;20105;-79
2021/03/31 03:42:41;;;;;;;0.73;0.20;;;22.70;46.10;;;;;;5029968;28;20405;-79
2021/03/31 03:45:08;;;;;;;2.35;0.30;;;22.70;46.00;;;;;;5010058;28;20027;-79
2021/03/31 03:47:35;;;;;;;0.75;0.38;;;22.70;46.00;;;;;;5015965;28;20025;-79
2021/03/31 03:50:06;;;;;;;0.70;0.25;;;22.70;46.00;;;;;;5014277;28;20020;-79
2021/03/31 03:52:32;;;;;;;0.60;0.30;;;22.70;46.00;;;;;;5015327;28;20029;-79
2021/03/31 03:54:58;;;;;;;0.75;0.40;;;22.70;46.10;;;;;;5033209;28;20025;-79
2021/03/31 03:57:25;;;;;;;1.00;0.43;;;22.60;46.00;;;;;;5046626;28;20408;-79
2021/03/31 03:59:52;;;;;;;0.80;0.20;;;22.60;45.90;;;;;;5026440;28;20029;-79
2021/03/31 04:02:36;;;;;;;1.08;0.60;;;22.60;45.90;;;;;;5032595;28;20116;-79
2021/03/31 04:05:21;;;;;;;2.33;0.35;;;22.60;46.00;;;;;;5036341;28;20051;-79
2021/03/31 04:07:47;;;;;;;0.85;0.30;;;22.60;45.90;;;;;;5028995;28;20029;-79
2021/03/31 04:10:15;;;;;;;0.70;0.35;;;22.60;46.00;;;;;;5012115;28;20017;-79
2021/03/31 04:12:41;;;;;;;0.90;0.28;;;22.60;46.00;;;;;;5032182;28;20484;-80
2021/03/31 04:15:09;;;;;;;0.70;0.30;;;22.60;46.40;;;;;;5013013;28;20033;-80
2021/03/31 04:17:38;;;;;;;0.88;0.30;;;22.60;45.90;;;;;;5024359;28;20052;-79
2021/03/31 04:20:08;;;;;;;0.90;0.40;;;22.60;45.90;;;;;;5016332;28;20040;-79
2021/03/31 04:22:34;;;;;;;0.80;0.30;;;22.60;45.90;;;;;;5010170;28;20971;-80
2021/03/31 04:25:00;;;;;;;0.40;0.20;;;22.60;45.90;;;;;;5031586;28;20060;-80
2021/03/31 04:27:28;;;;;;;0.65;0.20;;;22.60;45.90;;;;;;5051994;28;20295;-80
2021/03/31 04:29:54;;;;;;;0.65;0.30;;;22.60;45.90;;;;;;5033639;28;20029;-80
2021/03/31 04:32:21;;;;;;;0.60;0.20;;;22.60;45.90;;;;;;5012468;28;20208;-80
2021/03/31 04:34:47;;;;;;;0.90;0.38;;;22.60;45.90;;;;;;5026139;28;20072;-80
2021/03/31 04:37:16;;;;;;;0.73;0.30;;;22.60;45.90;;;;;;5032487;28;20025;-81
2021/03/31 04:39:42;;;;;;;1.63;0.40;;;22.50;45.80;;;;;;5008974;28;20057;-80
2021/03/31 04:42:09;;;;;;;1.17;0.30;;;22.60;46.00;;;;;;5029460;28;20039;-80
2021/03/31 04:44:35;;;;;;;0.50;0.30;;;22.60;45.90;;;;;;5028851;28;20048;-81
2021/03/31 04:47:02;;;;;;;0.50;0.30;;;22.60;45.90;;;;;;5030961;28;20043;-80
2021/03/31 04:49:28;;;;;;;0.93;0.30;;;22.60;45.90;;;;;;5047570;28;20737;-80
2021/03/31 04:51:54;;;;;;;0.73;0.20;;;22.60;45.80;;;;;;5013011;28;20096;-80
2021/03/31 04:54:20;;;;;;;0.50;0.20;;;22.50;45.80;;;;;;5011814;28;20052;-80
2021/03/31 04:56:46;;;;;;;0.57;0.20;;;22.50;45.90;;;;;;5011452;28;20124;-80
2021/03/31 04:59:12;;;;;;;0.60;0.20;;;22.50;45.90;;;;;;5015832;28;20037;-80
2021/03/31 05:01:39;;;;;;;0.80;0.30;;;22.50;45.90;;;;;;5018006;28;20258;-80
2021/03/31 05:04:05;;;;;;;0.60;0.20;;;22.50;45.80;;;;;;5030318;28;20078;-79
2021/03/31 05:06:31;;;;;;;1.30;0.30;;;22.50;45.90;;;;;;5006736;28;20229;-80
2021/03/31 05:08:57;;;;;;;0.80;0.30;;;22.50;45.90;;;;;;5047610;28;20013;-80
2021/03/31 05:11:25;;;;;;;0.50;0.20;;;22.50;45.90;;;;;;5026342;28;20086;-80
2021/03/31 05:13:51;;;;;;;1.85;0.45;;;22.50;45.90;;;;;;5062153;28;20762;-82
2021/03/31 05:16:17;;;;;;;0.93;0.17;;;22.50;46.40;;;;;;5037405;28;20078;-78
2021/03/31 05:18:43;;;;;;;1.10;0.25;;;22.50;45.90;;;;;;5031719;28;20025;-79
2021/03/31 05:21:09;;;;;;;1.48;0.40;;;22.50;45.90;;;;;;5025838;28;20397;-79
2021/03/31 05:23:35;;;;;;;0.70;0.22;;;22.50;45.90;;;;;;5016357;28;20021;-78
2021/03/31 05:26:01;;;;;;;1.00;0.20;;;22.50;45.90;;;;;;5034013;28;20029;-79
2021/03/31 05:28:27;;;;;;;0.63;0.20;;;22.50;45.90;;;;;;5023359;28;20812;-79
2021/03/31 05:30:53;;;;;;;0.68;0.22;;;22.50;46.00;;;;;;5041436;28;20392;-79
2021/03/31 05:33:19;;;;;;;0.50;0.20;;;22.50;45.90;;;;;;5026224;28;20503;-80
2021/03/31 05:35:45;;;;;;;2.70;0.28;;;22.40;45.90;;;;;;5015414;28;20021;-80
2021/03/31 05:38:11;;;;;;;0.80;0.20;;;22.50;45.90;;;;;;5030350;28;20017;-79
2021/03/31 05:40:37;;;;;;;0.73;0.20;;;22.50;45.90;;;;;;5030642;28;20021;-79
2021/03/31 05:43:04;;;;;;;0.70;0.28;;;22.50;46.00;;;;;;5026836;28;20024;-80
2021/03/31 05:45:32;;;;;;;1.25;0.20;;;22.50;46.00;;;;;;5045613;28;20024;-79
2021/03/31 05:47:58;;;;;;;0.40;0.20;;;22.50;46.50;;;;;;5050361;28;20049;-80
2021/03/31 05:50:24;;;;;;;0.47;0.20;;;22.40;46.00;;;;;;5036743;28;20032;-79
2021/03/31 05:52:50;;;;;;;0.45;0.20;;;22.50;46.00;;;;;;5027691;28;20024;-80
2021/03/31 05:55:17;;;;;;;1.30;0.30;;;22.50;46.40;;;;;;5025978;28;20017;-80
2021/03/31 05:57:44;;;;;;;1.08;0.22;;;22.50;46.00;;;;;;5007064;28;20017;-81
2021/03/31 06:00:13;;;;;;;0.60;0.20;;;22.40;46.00;;;;;;5014844;28;20026;-79
2021/03/31 06:02:41;;;;;;;0.90;0.20;;;22.40;46.00;;;;;;5026160;28;20034;-80
2021/03/31 06:05:09;;;;;;;2.83;0.20;;;22.40;45.90;;;;;;5028224;28;20075;-79
2021/03/31 06:07:35;;;;;;;0.82;0.30;;;22.40;46.10;;;;;;5023069;28;20537;-80
2021/03/31 06:10:16;;;;;;;0.55;0.20;;;22.40;46.00;;;;;;5011647;28;20037;-79
2021/03/31 06:12:46;;;;;;;0.45;0.20;;;22.40;46.00;;;;;;5010752;28;20520;-79
2021/03/31 06:15:25;;;;;;;0.85;0.40;;;22.40;46.00;;;;;;5041942;28;20026;-79
2021/03/31 06:17:54;;;;;;;1.52;0.30;;;22.40;45.90;;;;;;5025828;28;20650;-80
2021/03/31 06:20:44;;;;;;;2.67;0.28;;;22.40;45.90;;;;;;5011477;28;20480;-79
2021/03/31 06:26:29;;;;;;;2.42;0.30;;;22.40;46.10;;;;;;5028083;28;20036;-80
2021/03/31 06:29:09;;;;;;;1.30;0.25;;;22.40;46.00;;;;;;5013465;28;20047;-80
2021/03/31 06:31:39;;;;;;;0.60;0.20;;;22.40;46.00;;;;;;5013053;28;20060;-80
2021/03/31 06:34:10;;;;;;;0.85;0.50;;;22.40;46.00;;;;;;5047585;28;20033;-80
2021/03/31 06:36:39;;;;;;;0.80;0.20;;;22.40;46.00;;;;;;5011361;28;20029;-79
2021/03/31 06:39:16;;;;;;;1.02;0.50;;;22.40;46.00;;;;;;5027388;28;20103;-80
2021/03/31 06:41:57;;;;;;;1.17;0.32;;;22.40;46.00;;;;;;5022900;28;20029;-79
2021/03/31 06:50:14;;;;;;;1.05;0.30;;;22.40;45.90;;;;;;5043281;28;20028;-79
2021/03/31 06:52:54;;;;;;;0.70;0.30;;;22.50;46.00;;;;;;5008569;28;20056;-79
2021/03/31 06:55:21;;;;;;;0.75;0.22;;;22.40;45.90;;;;;;5049006;28;20028;-79
2021/03/31 06:57:52;;;;;;;1.55;0.40;;;22.50;46.00;;;;;;5016083;28;20523;-78
2021/03/31 07:00:33;;;;;;;0.93;0.40;;;22.50;46.00;;;;;;5016319;28;20082;-79
2021/03/31 07:03:03;;;;;;;0.70;0.30;;;22.50;46.00;;;;;;5047245;28;20056;-79
2021/03/31 07:05:31;;;;;;;2.45;0.50;;;22.50;45.90;;;;;;5030178;28;20013;-79
2021/03/31 07:08:10;;;;;;;0.80;0.30;;;22.50;46.00;;;;;;5013559;28;20048;-80
2021/03/31 07:10:44;;;;;;;2.17;0.43;;;22.50;45.90;;;;;;5011010;28;20021;-79
2021/03/31 07:13:11;;;;;;;1.33;0.50;;;22.50;46.00;;;;;;5012973;28;20032;-79
2021/03/31 07:15:40;;;;;;;0.95;0.52;;;22.50;46.00;;;;;;5031543;28;20036;-79
2021/03/31 07:18:06;;;;;;;1.00;0.50;;;22.40;45.90;;;;;;5044718;28;20104;-78
2021/03/31 07:20:32;;;;;;;1.13;0.60;;;22.50;45.90;;;;;;5031916;28;20026;-79
2021/03/31 07:23:00;;;;;;;1.27;0.47;;;22.50;45.90;;;;;;5028911;28;20036;-78
2021/03/31 07:25:26;;;;;;;1.23;0.40;;;22.50;45.90;;;;;;5015468;28;20025;-78
2021/03/31 07:27:56;;;;;;;0.52;0.25;;;22.50;45.80;;;;;;5051477;28;20059;-79
2021/03/31 07:30:26;;;;;;;1.40;0.35;;;22.50;45.90;;;;;;5012355;28;20033;-79
2021/03/31 07:33:03;;;;;;;1.33;0.50;;;22.50;45.80;;;;;;5047817;28;20565;-79
2021/03/31 07:35:35;;;;;;;1.02;0.60;;;22.50;45.80;;;;;;5032357;28;20030;-79
2021/03/31 07:38:03;;;;;;;2.15;0.50;;;22.50;45.80;;;;;;5029506;28;20108;-79
2021/03/31 07:40:31;;;;;;;0.85;0.20;;;22.50;45.80;;;;;;5025814;28;20381;-80
2021/03/31 07:43:04;;;;;;;0.95;0.30;;;22.50;45.80;;;;;;5041277;28;20071;-80
2021/03/31 07:45:36;;;;;;;0.60;0.30;;;22.50;45.80;;;;;;5007278;28;20025;-80
2021/03/31 07:48:03;;;;;;;1.08;0.30;;;22.60;45.80;;;;;;5015751;28;20044;-78
2021/03/31 07:50:34;;;;;;;0.95;0.40;;;22.50;45.70;;;;;;5028903;28;20017;-78
2021/03/31 07:53:02;;;;;;;0.73;0.40;;;22.60;45.80;;;;;;5053019;28;20541;-79
2021/03/31 07:55:34;;;;;;;1.35;0.60;;;22.60;45.70;;;;;;5030404;28;20021;-79
2021/03/31 07:58:13;;;;;;;1.10;0.30;;;22.60;45.80;;;;;;5029860;28;20052;-79
2021/03/31 08:00:48;;;;;;;1.25;0.55;;;22.60;45.70;;;;;;5050090;28;20032;-80
2021/03/31 08:03:15;;;;;;;0.85;0.45;;;22.60;45.80;;;;;;5016488;28;20275;-79
2021/03/31 08:06:14;;;;;;;2.15;0.43;;;22.60;45.70;;;;;;5014471;28;20077;-80
2021/03/31 08:08:46;;;;;;;1.38;0.68;;;22.60;45.70;;;;;;5013958;28;20041;-79
2021/03/31 08:11:34;;;;;;;1.67;0.57;;;22.60;45.50;;;;;;5010447;28;20051;-79
2021/03/31 08:14:00;;;;;;;1.02;0.50;;;22.60;45.60;;;;;;5015092;28;20037;-79
2021/03/31 08:16:35;;;;;;;0.90;0.60;;;22.60;45.50;;;;;;5022971;28;20051;-79
2021/03/31 08:19:03;;;;;;;0.90;0.45;;;22.60;45.50;;;;;;5013310;28;20052;-79
2021/03/31 08:21:31;;;;;;;3.28;0.60;;;22.70;45.50;;;;;;5010920;28;20018;-79
2021/03/31 08:23:57;;;;;;;2.42;0.82;;;22.70;45.50;;;;;;5027739;28;20027;-79
2021/03/31 08:26:35;;;;;;;1.20;0.70;;;22.70;45.50;;;;;;5031730;28;20170;-81
2021/03/31 08:29:03;;;;;;;1.20;0.45;;;22.70;45.50;;;;;;5031797;28;20032;-78
2021/03/31 08:31:35;;;;;;;1.30;0.55;;;22.70;45.50;;;;;;5031050;28;20029;-78
2021/03/31 08:34:01;;;;;;;1.10;0.70;;;22.70;45.40;;;;;;5024393;28;20029;-78
2021/03/31 08:36:28;;;;;;;1.10;0.65;;;22.70;45.40;;;;;;5008223;28;20751;-79
2021/03/31 08:38:57;;;;;;;1.00;0.57;;;22.80;45.50;;;;;;5024999;28;20027;-78
2021/03/31 08:41:25;;;;;;;1.95;0.65;;;22.70;45.40;;;;;;5026559;28;20034;-79
2021/03/31 08:44:25;;;;;;;0.90;0.50;;;22.80;45.50;;;;;;5046784;28;20028;-79
2021/03/31 08:46:53;;;;;;;1.10;0.63;;;22.80;45.50;;;;;;5046644;28;20013;-82
2021/03/31 08:49:20;;;;;;;1.20;0.65;;;22.80;45.50;;;;;;5032811;28;20028;-79
2021/03/31 08:51:49;;;;;;;2.15;0.80;;;22.80;45.40;;;;;;5050927;28;20033;-79
2021/03/31 08:54:15;;;;;;;1.98;0.80;;;22.80;45.50;;;;;;5025207;28;20059;-79
2021/03/31 08:56:48;;;;;;;1.55;0.57;;;22.80;45.50;;;;;;5030811;28;20033;-80
2021/03/31 08:59:15;;;;;;;1.38;0.75;;;22.80;45.40;;;;;;5029043;28;20099;-79
2021/03/31 09:01:42;;;;;;;1.50;0.80;;;22.80;45.40;;;;;;5046581;28;20025;-79
2021/03/31 09:04:22;;;;;;;1.63;0.98;;;22.90;45.40;;;;;;5010930;28;20100;-79
2021/03/31 09:06:48;;;;;;;1.33;0.65;;;22.90;45.40;;;;;;5029447;28;20121;-80
2021/03/31 09:09:14;;;;;;;2.58;0.95;;;22.90;45.40;;;;;;5020767;28;20013;-80
2021/03/31 09:11:40;;;;;;;1.48;1.00;;;22.90;45.50;;;;;;5032161;28;20036;-79
2021/03/31 09:14:17;;;;;;;2.85;0.80;;;22.90;45.50;;;;;;5014742;28;20029;-79
2021/03/31 09:16:54;;;;;;;1.67;0.70;;;22.90;45.50;;;;;;5021628;28;20025;-80
2021/03/31 09:19:20;;;;;;;1.63;0.77;;;22.90;45.60;;;;;;5036436;28;20022;-79
2021/03/31 09:21:47;;;;;;;1.45;0.77;;;23.00;45.50;;;;;;5022185;28;20033;-80
2021/03/31 09:24:15;;;;;;;1.63;0.93;;;23.00;45.60;;;;;;5021215;28;20057;-80
2021/03/31 09:26:54;;;;;;;2.50;1.05;;;23.00;45.60;;;;;;5056789;28;20024;-80
2021/03/31 09:29:20;;;;;;;1.73;0.77;;;23.00;45.60;;;;;;5017721;28;20013;-79
2021/03/31 09:31:47;;;;;;;1.73;0.82;;;23.00;45.50;;;;;;5013425;28;20044;-80
2021/03/31 09:34:14;;;;;;;1.10;0.60;;;23.00;46.10;;;;;;5017379;28;20112;-79
2021/03/31 09:36:40;;;;;;;2.08;1.23;;;23.00;45.60;;;;;;5034577;28;20037;-79
2021/03/31 09:39:08;;;;;;;1.70;0.88;;;23.00;45.60;;;;;;5032490;28;20064;-80
2021/03/31 09:41:36;;;;;;;2.58;1.15;;;23.10;45.50;;;;;;5027215;28;20034;-79
2021/03/31 09:44:03;;;;;;;2.03;0.85;;;23.10;45.60;;;;;;5026390;28;20023;-79
2021/03/31 09:46:30;;;;;;;1.50;0.98;;;23.10;45.70;;;;;;5026964;28;20014;-80
2021/03/31 09:48:57;;;;;;;1.00;0.40;;;23.10;45.70;;;;;;5029335;28;20032;-80
2021/03/31 09:51:24;;;;;;;1.35;0.70;;;23.10;45.60;;;;;;5026028;28;20021;-79
2021/03/31 09:53:51;;;;;;;1.38;0.85;;;23.10;45.50;;;;;;5013402;28;20028;-79
2021/03/31 09:56:18;;;;;;;1.50;0.90;;;23.10;45.50;;;;;;5013736;28;20037;-80
2021/03/31 09:58:47;;;;;;;1.70;0.68;;;23.10;45.50;;;;;;5016798;28;20029;-80
2021/03/31 10:01:15;;;;;;;2.22;0.88;;;23.20;45.50;;;;;;5027980;28;20037;-79
2021/03/31 10:03:43;;;;;;;1.25;1.00;;;23.20;45.50;;;;;;5029988;28;20083;-79
2021/03/31 10:06:17;;;;;;;3.35;0.90;;;23.20;45.50;;;;;;5016779;28;20025;-80
2021/03/31 10:08:44;;;;;;;2.85;1.00;;;23.20;45.50;;;;;;5011606;28;20030;-80
2021/03/31 10:11:32;;;;;;;1.52;0.52;;;23.20;45.50;;;;;;5017040;28;20112;-80
2021/03/31 10:14:02;;;;;;;0.98;0.65;;;23.20;45.50;;;;;;5030776;28;20036;-80
2021/03/31 10:16:39;;;;;;;1.23;0.80;;;23.20;45.60;;;;;;5028853;28;20044;-81
2021/03/31 10:19:07;;;;;;;1.45;0.70;;;23.20;45.50;;;;;;5014732;28;20029;-82
2021/03/31 10:21:36;;;;;;;2.08;0.68;;;23.20;45.50;;;;;;5031746;28;20032;-80
2021/03/31 10:24:03;;;;;;;2.17;1.20;;;23.30;45.50;;;;;;5030896;28;20013;-80
2021/03/31 10:26:32;;;;;;;2.10;1.35;;;23.30;45.70;;;;;;5028705;28;20024;-80
2021/03/31 10:29:03;;;;;;;3.08;0.95;;;23.30;46.00;;;;;;5014136;28;20040;-79
2021/03/31 10:31:33;;;;;;;;;;;23.30;46.00;;;;;;5027841;28;20108;-79
2021/03/31 10:34:00;;;;;;;3.30;0.88;;;23.30;46.00;;;;;;5029714;28;20418;-79
2021/03/31 10:36:36;;;;;;;2.35;0.95;;;23.40;45.90;;;;;;5029330;28;20028;-80
2021/03/31 10:39:34;;;;;;;2.28;1.10;;;23.30;45.70;;;;;;5032579;28;20033;-80
2021/03/31 10:50:24;;;;;;;1.85;0.65;;;23.30;45.60;;;;;;5030829;28;20028;-80
2021/03/31 10:52:52;;;;;;;10.15;1.08;;;23.40;45.70;;;;;;5012942;28;20029;-81
2021/03/31 10:55:19;;;;;;;1.65;1.00;;;23.40;45.60;;;;;;5014719;28;20489;-80
2021/03/31 10:57:44;;;;;;;2.90;0.90;;;23.40;45.60;;;;;;5049040;28;20029;-80
2021/03/31 11:00:11;;;;;;;1.67;1.00;;;23.40;45.60;;;;;;5013959;28;20091;-80
2021/03/31 11:02:37;;;;;;;3.88;0.90;;;23.50;45.60;;;;;;5009677;28;20037;-80
2021/03/31 11:05:03;;;;;;;1.95;1.05;;;23.40;45.50;;;;;;5019084;28;20060;-80
2021/03/31 11:07:29;;;;;;;3.63;0.90;;;23.50;45.50;;;;;;5050726;28;20021;-80
2021/03/31 11:09:55;;;;;;;1.17;0.63;;;23.50;45.50;;;;;;5041317;28;20028;-80
2021/03/31 11:12:21;;;;;;;1.80;0.85;;;23.50;45.40;;;;;;5041637;28;20021;-80
2021/03/31 11:14:47;;;;;;;1.92;0.57;;;23.50;45.50;;;;;;5041028;28;20044;-81
2021/03/31 11:17:24;;;;;;;1.35;0.50;;;23.50;45.50;;;;;;5012842;28;20033;-81
2021/03/31 11:20:05;;;;;;;1.10;0.60;;;23.50;45.50;;;;;;5036074;28;20389;-80
2021/03/31 11:28:00;;;;;;;2.95;0.73;;;23.50;45.40;;;;;;5026967;28;20025;-80
2021/03/31 11:30:26;;;;;;;1.15;0.40;;;23.60;45.40;;;;;;5024286;28;20032;-80
2021/03/31 11:32:52;;;;;;;1.20;0.40;;;23.60;45.30;;;;;;5011528;28;20029;-80
2021/03/31 11:35:18;;;;;;;1.17;0.80;;;23.60;45.40;;;;;;5051076;28;20131;-80
2021/03/31 11:37:44;;;;;;;2.70;0.90;;;23.60;45.30;;;;;;5051894;28;20115;-80
2021/03/31 11:40:10;;;;;;;1.17;0.70;;;23.60;45.30;;;;;;5016832;28;20032;-81
2021/03/31 11:42:36;;;;;;;1.20;0.52;;;23.70;45.40;;;;;;5011838;28;20493;-81
2021/03/31 11:45:04;;;;;;;2.08;0.60;;;23.60;45.30;;;;;;5025366;28;20029;-82
2021/03/31 11:47:30;;;;;;;1.80;0.60;;;23.70;45.40;;;;;;5024930;28;20024;-80
2021/03/31 11:49:56;;;;;;;2.35;0.52;;;23.70;45.40;;;;;;5025331;28;20032;-80
2021/03/31 11:52:22;;;;;;;2.78;0.35;;;23.60;45.30;;;;;;5018055;28;20072;-80
2021/03/31 11:54:48;;;;;;;1.20;0.20;;;23.70;45.30;;;;;;5007483;28;20830;-80
2021/03/31 11:57:14;;;;;;;3.10;0.63;;;23.70;45.30;;;;;;5025484;28;20025;-80
2021/03/31 11:59:40;;;;;;;2.60;0.55;;;23.70;45.40;;;;;;5007138;28;20028;-80
2021/03/31 12:02:05;;;;;;;2.17;0.68;;;23.70;45.30;;;;;;5007829;28;20430;-82
2021/03/31 12:04:32;;;;;;;1.30;0.47;;;23.70;45.30;;;;;;5024430;28;20029;-80
2021/03/31 12:06:58;;;;;;;1.10;0.38;;;23.80;45.80;;;;;;5009209;28;20519;-80
2021/03/31 12:09:24;;;;;;;1.55;0.40;;;23.70;45.30;;;;;;5026459;28;20032;-80
2021/03/31 12:11:50;;;;;;;1.50;0.47;;;23.80;45.30;;;;;;5027487;28;20025;-80
2021/03/31 12:14:16;;;;;;;1.38;0.50;;;23.80;45.30;;;;;;5007023;28;20025;-80
2021/03/31 12:16:42;;;;;;;0.88;0.43;;;23.80;45.30;;;;;;5028063;28;20078;-80
2021/03/31 12:19:09;;;;;;;1.20;0.30;;;23.80;45.30;;;;;;5033645;28;20075;-80
2021/03/31 12:21:35;;;;;;;0.70;0.32;;;23.80;45.20;;;;;;5021014;28;20039;-80
2021/03/31 12:24:01;;;;;;;1.13;0.30;;;23.80;45.20;;;;;;5011547;28;20025;-80
2021/03/31 12:26:27;;;;;;;1.63;0.47;;;23.80;45.20;;;;;;5011436;28;20039;-80
2021/03/31 12:28:57;;;;;;;0.88;0.40;;;23.80;45.20;;;;;;5017741;28;20040;-80
2021/03/31 12:31:24;;;;;;;1.10;0.32;;;23.90;45.20;;;;;;5036019;28;20029;-80
2021/03/31 12:33:50;;;;;;;1.40;0.40;;;23.90;45.30;;;;;;5022532;28;20079;-81
2021/03/31 12:36:19;;;;;;;1.13;0.30;;;23.90;45.20;;;;;;5034405;28;20096;-80
2021/03/31 12:38:45;;;;;;;1.17;0.35;;;24.00;45.30;;;;;;5028589;28;20037;-80
2021/03/31 12:41:11;;;;;;;0.60;0.30;;;23.90;45.20;;;;;;5007616;28;20028;-79
2021/03/31 12:43:37;;;;;;;1.77;0.50;;;24.00;45.30;;;;;;5027899;28;20021;-80
2021/03/31 12:46:03;;;;;;;1.88;0.60;;;24.00;45.20;;;;;;5011530;28;20021;-81
2021/03/31 12:48:29;;;;;;;3.08;0.52;;;24.00;45.30;;;;;;5016626;28;20021;-80
2021/03/31 12:51:07;;;;;;;2.15;0.40;;;24.00;45.30;;;;;;5012108;28;20036;-80
2021/03/31 12:56:00;;;;;;;0.82;0.30;;;24.00;45.20;;;;;;5026969;28;20112;-80
2021/03/31 12:58:26;;;;;;;1.67;0.40;;;24.10;45.30;;;;;;5049455;28;20491;-81
2021/03/31 13:00:54;;;;;;;0.88;0.43;;;24.10;45.30;;;;;;5045648;28;20033;-80
2021/03/31 13:03:20;;;;;;;1.40;0.30;;;24.10;45.40;;;;;;5012984;28;20028;-81
2021/03/31 13:05:46;;;;;;;0.70;0.20;;;24.10;45.30;;;;;;5022002;28;20140;-80
2021/03/31 13:08:14;;;;;;;1.50;0.38;;;24.10;45.40;;;;;;5028748;28;20765;-80
2021/03/31 13:10:42;;;;;;;0.80;0.20;;;24.10;45.40;;;;;;5012959;28;20078;-80
2021/03/31 13:15:43;;;;;;;1.10;0.20;;;24.10;45.50;;;;;;5028241;28;20081;-81
2021/03/31 13:21:59;;;;;;;;;;;24.10;45.50;;;;;;5039955;28;20067;-80
2021/03/31 13:33:48;;;;;;;1.17;0.22;;;24.20;45.50;;;;;;5034906;28;19905;-80
2021/03/31 13:36:19;;;;;;;0.38;0.15;;;24.20;45.40;;;;;;5017592;28;20029;-80
2021/03/31 13:41:17;;;;;;;0.70;0.10;;;24.20;45.50;;;;;;5047139;28;20021;-80